createdAt,value
2022-11-24T00:00:05.208Z,951.5200
2022-11-24T00:00:16.399Z,951.5200
2022-11-24T00:00:27.459Z,951.5000
2022-11-24T00:00:38.550Z,951.5400
2022-11-24T00:00:49.609Z,951.5400
2022-11-24T00:01:00.678Z,951.5400
2022-11-24T00:01:11.767Z,951.5200
2022-11-24T00:01:22.968Z,951.5000
2022-11-24T00:01:34.174Z,951.5000
2022-11-24T00:01:45.444Z,951.5000
2022-11-24T00:01:56.583Z,951.5200
2022-11-24T00:02:07.907Z,951.5400
2022-11-24T00:02:19.172Z,951.5400
2022-11-24T00:02:30.810Z,951.5200
2022-11-24T00:02:42.278Z,951.5400
2022-11-24T00:02:53.698Z,951.5400
2022-11-24T00:03:05.048Z,951.5400
2022-11-24T00:03:16.295Z,951.5400
2022-11-24T00:03:27.532Z,951.5400
2022-11-24T00:03:38.770Z,951.5600
2022-11-24T00:03:49.907Z,951.5400
2022-11-24T00:04:01.057Z,951.5400
2022-11-24T00:04:12.269Z,951.5400
2022-11-24T00:04:23.478Z,951.5400
2022-11-24T00:04:35.073Z,951.5400
2022-11-24T00:04:46.234Z,951.5400
2022-11-24T00:04:57.375Z,951.5600
2022-11-24T00:05:08.566Z,951.5400
2022-11-24T00:05:19.778Z,951.5600
2022-11-24T00:05:30.965Z,951.5600
2022-11-24T00:05:42.011Z,951.5600
2022-11-24T00:05:53.078Z,951.5600
2022-11-24T00:06:04.249Z,951.5600
2022-11-24T00:06:15.463Z,951.5600
2022-11-24T00:06:26.651Z,951.5600
2022-11-24T00:06:37.844Z,951.5600
2022-11-24T00:06:49.058Z,951.5600
2022-11-24T00:07:00.120Z,951.5600
2022-11-24T00:07:11.267Z,951.5400
2022-11-24T00:07:22.391Z,951.5600
2022-11-24T00:07:33.590Z,951.5600
2022-11-24T00:07:44.868Z,951.5600
2022-11-24T00:07:55.989Z,951.5400
2022-11-24T00:08:07.128Z,951.5600
2022-11-24T00:08:18.335Z,951.5400
2022-11-24T00:08:29.579Z,951.5600
2022-11-24T00:08:40.709Z,951.5400
2022-11-24T00:08:51.929Z,951.5600
2022-11-24T00:09:03.127Z,951.5600
2022-11-24T00:09:14.336Z,951.6000
2022-11-24T00:09:25.578Z,951.5800
2022-11-24T00:09:36.787Z,951.6000
2022-11-24T00:09:47.948Z,951.6000
2022-11-24T00:09:59.048Z,951.5800
2022-11-24T00:10:10.148Z,951.5600
2022-11-24T00:10:21.256Z,951.5600
2022-11-24T00:10:32.416Z,951.5800
2022-11-24T00:10:43.609Z,951.5800
2022-11-24T00:10:54.819Z,951.5800
2022-11-24T00:11:05.885Z,951.5600
2022-11-24T00:11:16.945Z,951.5800
2022-11-24T00:11:28.087Z,951.5600
2022-11-24T00:11:39.299Z,951.5600
2022-11-24T00:11:50.498Z,951.5800
2022-11-24T00:12:01.700Z,951.6000
2022-11-24T00:12:12.818Z,951.5600
2022-11-24T00:12:24.098Z,951.5600
2022-11-24T00:12:35.285Z,951.6000
2022-11-24T00:12:46.507Z,951.6000
2022-11-24T00:12:57.695Z,951.6200
2022-11-24T00:13:08.768Z,951.6400
2022-11-24T00:13:19.848Z,951.6400
2022-11-24T00:13:30.969Z,951.6600
2022-11-24T00:13:42.165Z,951.6200
2022-11-24T00:13:53.379Z,951.6400
2022-11-24T00:14:04.560Z,951.6400
2022-11-24T00:14:15.644Z,951.6600
2022-11-24T00:14:26.769Z,951.6200
2022-11-24T00:14:37.968Z,951.6200
2022-11-24T00:14:49.108Z,951.6800
2022-11-24T00:15:00.260Z,951.7000
2022-11-24T00:15:11.500Z,951.7000
2022-11-24T00:15:22.669Z,951.7000
2022-11-24T00:15:33.850Z,951.7200
2022-11-24T00:15:45.065Z,951.7000
2022-11-24T00:15:56.255Z,951.6800
2022-11-24T00:16:07.459Z,951.7000
2022-11-24T00:16:18.629Z,951.7000
2022-11-24T00:16:30.106Z,951.7000
2022-11-24T00:16:41.433Z,951.6800
2022-11-24T00:16:52.593Z,951.7000
2022-11-24T00:17:03.743Z,951.7000
2022-11-24T00:17:14.813Z,951.7000
2022-11-24T00:17:25.919Z,951.7000
2022-11-24T00:17:37.068Z,951.7000
2022-11-24T00:17:48.278Z,951.6800
2022-11-24T00:17:59.456Z,951.7000
2022-11-24T00:18:10.638Z,951.7200
2022-11-24T00:18:21.855Z,951.7000
2022-11-24T00:18:33.050Z,951.7000
2022-11-24T00:18:44.110Z,951.7000
2022-11-24T00:18:55.171Z,951.7000
2022-11-24T00:19:06.339Z,951.6800
2022-11-24T00:19:19.922Z,951.7000
2022-11-24T00:19:31.398Z,951.7000
2022-11-24T00:19:42.580Z,951.6800
2022-11-24T00:19:53.746Z,951.6800
2022-11-24T00:20:04.900Z,951.7000
2022-11-24T00:20:16.097Z,951.7400
2022-11-24T00:20:27.280Z,951.7400
2022-11-24T00:20:38.498Z,951.7400
2022-11-24T00:20:49.698Z,951.7200
2022-11-24T00:21:00.888Z,951.7200
2022-11-24T00:21:12.098Z,951.7200
2022-11-24T00:21:23.278Z,951.7200
2022-11-24T00:21:34.498Z,951.7200
2022-11-24T00:21:45.678Z,951.7200
2022-11-24T00:21:56.735Z,951.7600
2022-11-24T00:22:07.800Z,951.7400
2022-11-24T00:22:18.977Z,951.7400
2022-11-24T00:22:30.028Z,951.7600
2022-11-24T00:22:41.099Z,951.7800
2022-11-24T00:22:52.247Z,951.7600
2022-11-24T00:23:03.377Z,951.7800
2022-11-24T00:23:14.439Z,951.8000
2022-11-24T00:23:25.534Z,951.8200
2022-11-24T00:23:36.728Z,951.8200
2022-11-24T00:23:47.938Z,951.8200
2022-11-24T00:23:58.989Z,951.8200
2022-11-24T00:24:10.044Z,951.8400
2022-11-24T00:24:21.204Z,951.8200
2022-11-24T00:24:32.912Z,951.8400
2022-11-24T00:24:44.393Z,951.8400
2022-11-24T00:24:55.458Z,951.8600
2022-11-24T00:25:06.532Z,951.8600
2022-11-24T00:25:17.615Z,951.8800
2022-11-24T00:25:28.750Z,951.8800
2022-11-24T00:25:39.838Z,951.8600
2022-11-24T00:25:50.918Z,951.8600
2022-11-24T00:26:02.019Z,951.8800
2022-11-24T00:26:13.090Z,951.8600
2022-11-24T00:26:24.187Z,951.8600
2022-11-24T00:26:35.288Z,951.8400
2022-11-24T00:26:46.508Z,951.8600
2022-11-24T00:26:57.694Z,951.8400
2022-11-24T00:27:08.840Z,951.8400
2022-11-24T00:27:20.008Z,951.8600
2022-11-24T00:27:31.099Z,951.8600
2022-11-24T00:27:42.220Z,951.8400
2022-11-24T00:27:53.400Z,951.8600
2022-11-24T00:28:04.577Z,951.8400
2022-11-24T00:28:15.808Z,951.8600
2022-11-24T00:28:26.957Z,951.8600
2022-11-24T00:28:38.169Z,951.8600
2022-11-24T00:28:49.389Z,951.8600
2022-11-24T00:29:00.521Z,951.8600
2022-11-24T00:29:11.828Z,951.8600
2022-11-24T00:29:22.988Z,951.8600
2022-11-24T00:29:34.178Z,951.8600
2022-11-24T00:29:45.490Z,951.8600
2022-11-24T00:29:56.571Z,951.8800
2022-11-24T00:30:07.788Z,951.8800
2022-11-24T00:30:18.980Z,951.8800
2022-11-24T00:30:30.151Z,951.8600
2022-11-24T00:30:41.448Z,951.8600
2022-11-24T00:30:52.536Z,951.8600
2022-11-24T00:31:03.864Z,951.8600
2022-11-24T00:31:17.186Z,951.8600
2022-11-24T00:31:28.890Z,951.8800
2022-11-24T00:31:39.954Z,951.8800
2022-11-24T00:31:51.126Z,951.8800
2022-11-24T00:32:02.169Z,951.8600
2022-11-24T00:32:13.224Z,951.9000
2022-11-24T00:32:24.419Z,951.9000
2022-11-24T00:32:35.604Z,951.8800
2022-11-24T00:32:46.818Z,951.8800
2022-11-24T00:32:58.006Z,951.8800
2022-11-24T00:33:09.085Z,951.8800
2022-11-24T00:33:20.149Z,951.8800
2022-11-24T00:33:31.289Z,951.8800
2022-11-24T00:33:42.478Z,951.9000
2022-11-24T00:33:53.697Z,951.8800
2022-11-24T00:34:04.898Z,951.8800
2022-11-24T00:34:16.014Z,951.8800
2022-11-24T00:34:27.078Z,951.8800
2022-11-24T00:34:38.178Z,951.8800
2022-11-24T00:34:49.473Z,951.9000
2022-11-24T00:35:00.641Z,951.9000
2022-11-24T00:35:11.727Z,951.9000
2022-11-24T00:35:22.887Z,951.9000
2022-11-24T00:35:33.990Z,951.9000
2022-11-24T00:35:45.069Z,951.9200
2022-11-24T00:35:56.244Z,951.9200
2022-11-24T00:36:07.469Z,951.9200
2022-11-24T00:36:18.676Z,951.9200
2022-11-24T00:36:29.747Z,951.9200
2022-11-24T00:36:41.070Z,951.9200
2022-11-24T00:36:52.270Z,951.9400
2022-11-24T00:37:03.475Z,951.9400
2022-11-24T00:37:14.650Z,951.9400
2022-11-24T00:37:25.728Z,951.9400
2022-11-24T00:37:36.819Z,951.9400
2022-11-24T00:37:47.894Z,951.9400
2022-11-24T00:37:59.140Z,951.9400
2022-11-24T00:38:10.325Z,951.9400
2022-11-24T00:38:21.529Z,951.9400
2022-11-24T00:38:32.598Z,951.9400
2022-11-24T00:38:43.685Z,951.9500
2022-11-24T00:38:54.821Z,951.9400
2022-11-24T00:39:06.021Z,951.9400
2022-11-24T00:39:17.208Z,951.9500
2022-11-24T00:39:28.418Z,951.9400
2022-11-24T00:39:39.599Z,951.9500
2022-11-24T00:39:50.847Z,951.9400
2022-11-24T00:40:02.006Z,951.9500
2022-11-24T00:40:13.223Z,951.9400
2022-11-24T00:40:24.398Z,951.9400
2022-11-24T00:40:35.608Z,951.9400
2022-11-24T00:40:46.814Z,951.9400
2022-11-24T00:40:58.017Z,951.9200
2022-11-24T00:41:09.206Z,951.9200
2022-11-24T00:41:20.418Z,951.9400
2022-11-24T00:41:31.605Z,951.9400
2022-11-24T00:41:42.825Z,951.9400
2022-11-24T00:41:54.009Z,951.9400
2022-11-24T00:42:05.215Z,951.9200
2022-11-24T00:42:16.249Z,951.9400
2022-11-24T00:42:27.348Z,951.9700
2022-11-24T00:42:38.485Z,951.9700
2022-11-24T00:42:49.559Z,951.9700
2022-11-24T00:43:00.635Z,951.9500
2022-11-24T00:43:11.798Z,951.9500
2022-11-24T00:43:22.963Z,951.9700
2022-11-24T00:43:34.197Z,951.9700
2022-11-24T00:43:45.365Z,951.9700
2022-11-24T00:43:56.579Z,951.9700
2022-11-24T00:44:07.779Z,951.9700
2022-11-24T00:44:18.980Z,951.9700
2022-11-24T00:44:30.219Z,951.9700
2022-11-24T00:44:41.378Z,951.9900
2022-11-24T00:44:52.469Z,951.9900
2022-11-24T00:45:13.295Z,951.9900
2022-11-24T00:45:20.516Z,951.9900
2022-11-24T00:45:31.650Z,952.0100
2022-11-24T00:45:42.860Z,951.9900
2022-11-24T00:45:54.162Z,951.9900
2022-11-24T00:46:05.341Z,952.0100
2022-11-24T00:46:16.903Z,952.0100
2022-11-24T00:46:28.250Z,952.0300
2022-11-24T00:46:39.693Z,952.0300
2022-11-24T00:46:51.057Z,952.0300
2022-11-24T00:47:02.422Z,952.0300
2022-11-24T00:47:13.873Z,952.0300
2022-11-24T00:47:25.141Z,952.0500
2022-11-24T00:47:36.398Z,952.0500
2022-11-24T00:47:47.451Z,952.0300
2022-11-24T00:47:58.495Z,952.0300
2022-11-24T00:48:09.705Z,952.0500
2022-11-24T00:48:20.895Z,952.0300
2022-11-24T00:48:32.110Z,952.0500
2022-11-24T00:48:43.158Z,952.0700
2022-11-24T00:48:54.268Z,952.0900
2022-11-24T00:49:05.428Z,952.0900
2022-11-24T00:49:16.575Z,952.0900
2022-11-24T00:49:27.775Z,952.0900
2022-11-24T00:49:38.844Z,952.0900
2022-11-24T00:49:49.884Z,952.0900
2022-11-24T00:50:01.077Z,952.0900
2022-11-24T00:50:12.272Z,952.0900
2022-11-24T00:50:23.456Z,952.0900
2022-11-24T00:50:34.646Z,952.0900
2022-11-24T00:50:45.858Z,952.0700
2022-11-24T00:50:56.917Z,952.0900
2022-11-24T00:51:08.008Z,952.0900
2022-11-24T00:51:19.148Z,952.0900
2022-11-24T00:51:30.434Z,952.0900
2022-11-24T00:51:41.524Z,952.0900
2022-11-24T00:51:52.748Z,952.0900
2022-11-24T00:52:03.957Z,952.1100
2022-11-24T00:52:15.138Z,952.0900
2022-11-24T00:52:26.328Z,952.0900
2022-11-24T00:52:37.538Z,952.1100
2022-11-24T00:52:48.740Z,952.0900
2022-11-24T00:52:59.808Z,952.0900
2022-11-24T00:53:10.886Z,952.0900
2022-11-24T00:53:22.026Z,952.1100
2022-11-24T00:53:33.214Z,952.1100
2022-11-24T00:53:44.425Z,952.1100
2022-11-24T00:53:55.609Z,952.1100
2022-11-24T00:54:06.819Z,952.1100
2022-11-24T00:54:18.004Z,952.1100
2022-11-24T00:54:29.224Z,952.1100
2022-11-24T00:54:40.408Z,952.1300
2022-11-24T00:54:51.628Z,952.0900
2022-11-24T00:55:02.707Z,952.1100
2022-11-24T00:55:13.778Z,952.0900
2022-11-24T00:55:24.886Z,952.0900
2022-11-24T00:55:36.102Z,952.0500
2022-11-24T00:55:47.294Z,952.0900
2022-11-24T00:55:58.533Z,952.0700
2022-11-24T00:56:09.627Z,952.0700
2022-11-24T00:56:20.902Z,952.0900
2022-11-24T00:56:32.088Z,952.1100
2022-11-24T00:56:43.290Z,952.1100
2022-11-24T00:56:54.497Z,952.1300
2022-11-24T00:57:05.689Z,952.1300
2022-11-24T00:57:16.886Z,952.1300
2022-11-24T00:57:28.107Z,952.1100
2022-11-24T00:57:39.283Z,952.1300
2022-11-24T00:57:50.498Z,952.0900
2022-11-24T00:58:01.688Z,952.1100
2022-11-24T00:58:12.756Z,952.1300
2022-11-24T00:58:23.810Z,952.1300
2022-11-24T00:58:34.969Z,952.1300
2022-11-24T00:58:46.159Z,952.1300
2022-11-24T00:58:57.378Z,952.1300
2022-11-24T00:59:08.456Z,952.1500
2022-11-24T00:59:19.518Z,952.1500
2022-11-24T00:59:30.565Z,952.1500
2022-11-24T00:59:41.636Z,952.1700
2022-11-24T00:59:52.725Z,952.1700
2022-11-24T01:00:04.074Z,952.1500
2022-11-24T01:00:15.158Z,952.1700
2022-11-24T01:00:26.351Z,952.1700
2022-11-24T01:00:37.525Z,952.1900
2022-11-24T01:00:48.738Z,952.1900
2022-11-24T01:00:59.833Z,952.1900
2022-11-24T01:01:10.933Z,952.1700
2022-11-24T01:01:22.089Z,952.2300
2022-11-24T01:01:33.258Z,952.2300
2022-11-24T01:01:44.439Z,952.2100
2022-11-24T01:01:55.677Z,952.2300
2022-11-24T01:02:06.899Z,952.1900
2022-11-24T01:02:18.080Z,952.2100
2022-11-24T01:02:29.275Z,952.2100
2022-11-24T01:02:40.473Z,952.2100
2022-11-24T01:02:51.665Z,952.2100
2022-11-24T01:03:02.752Z,952.2300
2022-11-24T01:03:14.005Z,952.2300
2022-11-24T01:03:25.051Z,952.2500
2022-11-24T01:03:36.121Z,952.2500
2022-11-24T01:03:47.301Z,952.2300
2022-11-24T01:03:58.484Z,952.2300
2022-11-24T01:04:09.706Z,952.2500
2022-11-24T01:04:20.888Z,952.2300
2022-11-24T01:04:32.573Z,952.2300
2022-11-24T01:04:43.990Z,952.2500
2022-11-24T01:04:55.135Z,952.2500
2022-11-24T01:05:06.241Z,952.2300
2022-11-24T01:05:17.317Z,952.2500
2022-11-24T01:05:28.406Z,952.2300
2022-11-24T01:05:39.465Z,952.2500
2022-11-24T01:05:50.517Z,952.2500
2022-11-24T01:06:01.695Z,952.2500
2022-11-24T01:06:12.888Z,952.2500
2022-11-24T01:06:23.934Z,952.2700
2022-11-24T01:06:35.000Z,952.2700
2022-11-24T01:06:46.175Z,952.2700
2022-11-24T01:06:57.359Z,952.2900
2022-11-24T01:07:08.473Z,952.2900
2022-11-24T01:07:19.606Z,952.2700
2022-11-24T01:07:30.711Z,952.2700
2022-11-24T01:07:41.912Z,952.2500
2022-11-24T01:07:53.123Z,952.2900
2022-11-24T01:08:04.254Z,952.2900
2022-11-24T01:08:15.458Z,952.2700
2022-11-24T01:08:26.649Z,952.2900
2022-11-24T01:08:37.844Z,952.3100
2022-11-24T01:08:49.068Z,952.3300
2022-11-24T01:09:00.256Z,952.3100
2022-11-24T01:09:11.456Z,952.2900
2022-11-24T01:09:22.675Z,952.3100
2022-11-24T01:09:33.700Z,952.3100
2022-11-24T01:09:44.788Z,952.2900
2022-11-24T01:09:55.948Z,952.2700
2022-11-24T01:10:07.205Z,952.2900
2022-11-24T01:10:18.339Z,952.2700
2022-11-24T01:10:29.558Z,952.2500
2022-11-24T01:10:40.667Z,952.2500
2022-11-24T01:10:51.737Z,952.2700
2022-11-24T01:11:02.815Z,952.2700
2022-11-24T01:11:13.847Z,952.2700
2022-11-24T01:11:24.899Z,952.2900
2022-11-24T01:11:36.088Z,952.2900
2022-11-24T01:11:47.150Z,952.3100
2022-11-24T01:11:58.252Z,952.2700
2022-11-24T01:12:09.377Z,952.2900
2022-11-24T01:12:20.569Z,952.2900
2022-11-24T01:12:31.767Z,952.2900
2022-11-24T01:12:42.974Z,952.2900
2022-11-24T01:12:54.024Z,952.2900
2022-11-24T01:13:05.088Z,952.3100
2022-11-24T01:13:16.256Z,952.3300
2022-11-24T01:13:27.455Z,952.3500
2022-11-24T01:13:38.504Z,952.3500
2022-11-24T01:13:49.586Z,952.3500
2022-11-24T01:14:00.620Z,952.3700
2022-11-24T01:14:11.705Z,952.3700
2022-11-24T01:14:22.827Z,952.3700
2022-11-24T01:14:34.153Z,952.3900
2022-11-24T01:14:45.586Z,952.3900
2022-11-24T01:14:56.737Z,952.4100
2022-11-24T01:15:07.860Z,952.3900
2022-11-24T01:15:18.948Z,952.3700
2022-11-24T01:15:30.084Z,952.4100
2022-11-24T01:15:41.313Z,952.3900
2022-11-24T01:15:52.441Z,952.4100
2022-11-24T01:16:03.682Z,952.3900
2022-11-24T01:16:14.863Z,952.4100
2022-11-24T01:16:26.133Z,952.4200
2022-11-24T01:16:37.208Z,952.4200
2022-11-24T01:16:48.410Z,952.4200
2022-11-24T01:16:59.607Z,952.4200
2022-11-24T01:17:10.692Z,952.4200
2022-11-24T01:17:21.765Z,952.4200
2022-11-24T01:17:32.896Z,952.4200
2022-11-24T01:17:44.106Z,952.4200
2022-11-24T01:17:55.294Z,952.4400
2022-11-24T01:18:06.495Z,952.4400
2022-11-24T01:18:17.718Z,952.4600
2022-11-24T01:18:28.908Z,952.4400
2022-11-24T01:18:40.098Z,952.4600
2022-11-24T01:18:51.298Z,952.4100
2022-11-24T01:19:02.530Z,952.4200
2022-11-24T01:19:13.714Z,952.4600
2022-11-24T01:19:24.801Z,952.4600
2022-11-24T01:19:35.896Z,952.4400
2022-11-24T01:19:46.970Z,952.4400
2022-11-24T01:19:58.188Z,952.4800
2022-11-24T01:20:09.458Z,952.4600
2022-11-24T01:20:20.614Z,952.4400
2022-11-24T01:20:31.788Z,952.4600
2022-11-24T01:20:42.970Z,952.4400
2022-11-24T01:20:54.175Z,952.4400
2022-11-24T01:21:09.853Z,952.4400
2022-11-24T01:21:22.352Z,952.4400
2022-11-24T01:21:33.559Z,952.4600
2022-11-24T01:21:44.768Z,952.4800
2022-11-24T01:21:55.932Z,952.4800
2022-11-24T01:22:07.128Z,952.5000
2022-11-24T01:22:18.340Z,952.4800
2022-11-24T01:22:29.570Z,952.4800
2022-11-24T01:22:40.654Z,952.4800
2022-11-24T01:22:51.782Z,952.5200
2022-11-24T01:23:02.849Z,952.5200
2022-11-24T01:23:14.019Z,952.5000
2022-11-24T01:23:25.219Z,952.5200
2022-11-24T01:23:36.430Z,952.5200
2022-11-24T01:23:47.628Z,952.5000
2022-11-24T01:23:58.815Z,952.5000
2022-11-24T01:24:09.878Z,952.5000
2022-11-24T01:24:20.958Z,952.5200
2022-11-24T01:24:32.402Z,952.5200
2022-11-24T01:24:43.658Z,952.5200
2022-11-24T01:24:54.805Z,952.5400
2022-11-24T01:25:06.019Z,952.5400
2022-11-24T01:25:17.208Z,952.5400
2022-11-24T01:25:28.254Z,952.5600
2022-11-24T01:25:39.319Z,952.5600
2022-11-24T01:25:50.489Z,952.5400
2022-11-24T01:26:01.696Z,952.5600
2022-11-24T01:26:12.898Z,952.5600
2022-11-24T01:26:23.958Z,952.5600
2022-11-24T01:26:35.028Z,952.5800
2022-11-24T01:26:46.167Z,952.6000
2022-11-24T01:26:57.380Z,952.6200
2022-11-24T01:27:08.565Z,952.6400
2022-11-24T01:27:19.778Z,952.6400
2022-11-24T01:27:30.829Z,952.6000
2022-11-24T01:27:41.898Z,952.6200
2022-11-24T01:27:53.047Z,952.6200
2022-11-24T01:28:04.109Z,952.6200
2022-11-24T01:28:15.172Z,952.6200
2022-11-24T01:28:26.339Z,952.6200
2022-11-24T01:28:39.523Z,952.6400
2022-11-24T01:28:53.245Z,952.6600
2022-11-24T01:29:04.410Z,952.6600
2022-11-24T01:29:15.616Z,952.6400
2022-11-24T01:29:26.807Z,952.6800
2022-11-24T01:29:38.024Z,952.6800
2022-11-24T01:29:49.209Z,952.6800
2022-11-24T01:30:00.417Z,952.6600
2022-11-24T01:30:11.605Z,952.6600
2022-11-24T01:30:22.845Z,952.6600
2022-11-24T01:30:34.056Z,952.6800
2022-11-24T01:30:45.277Z,952.6600
2022-11-24T01:30:56.427Z,952.6600
2022-11-24T01:31:07.685Z,952.6600
2022-11-24T01:31:18.854Z,952.6400
2022-11-24T01:31:30.024Z,952.6600
2022-11-24T01:31:41.220Z,952.6600
2022-11-24T01:31:52.427Z,952.6600
2022-11-24T01:32:03.604Z,952.6600
2022-11-24T01:32:14.819Z,952.6400
2022-11-24T01:32:26.009Z,952.6400
2022-11-24T01:32:37.205Z,952.6400
2022-11-24T01:32:48.416Z,952.6400
2022-11-24T01:32:59.456Z,952.6600
2022-11-24T01:33:10.496Z,952.6600
2022-11-24T01:33:21.698Z,952.6800
2022-11-24T01:33:32.885Z,952.6800
2022-11-24T01:33:43.949Z,952.6800
2022-11-24T01:33:55.010Z,952.6800
2022-11-24T01:34:06.056Z,952.6800
2022-11-24T01:34:17.108Z,952.6600
2022-11-24T01:34:28.257Z,952.6600
2022-11-24T01:34:39.447Z,952.6600
2022-11-24T01:34:50.659Z,952.6800
2022-11-24T01:35:01.847Z,952.6800
2022-11-24T01:35:12.962Z,952.6800
2022-11-24T01:35:24.123Z,952.6800
2022-11-24T01:35:35.189Z,952.6800
2022-11-24T01:35:46.269Z,952.6800
2022-11-24T01:35:57.356Z,952.6800
2022-11-24T01:36:08.418Z,952.6800
2022-11-24T01:36:19.489Z,952.6600
2022-11-24T01:36:30.561Z,952.6800
2022-11-24T01:36:41.702Z,952.6800
2022-11-24T01:36:52.878Z,952.7000
2022-11-24T01:37:04.108Z,952.7000
2022-11-24T01:37:15.297Z,952.7000
2022-11-24T01:37:26.360Z,952.6800
2022-11-24T01:37:37.430Z,952.6600
2022-11-24T01:37:48.580Z,952.6800
2022-11-24T01:37:59.645Z,952.7000
2022-11-24T01:38:10.718Z,952.7000
2022-11-24T01:38:21.846Z,952.6800
2022-11-24T01:38:33.088Z,952.6800
2022-11-24T01:38:44.247Z,952.6800
2022-11-24T01:38:55.458Z,952.7000
2022-11-24T01:39:06.644Z,952.6800
2022-11-24T01:39:17.870Z,952.7000
2022-11-24T01:39:28.935Z,952.6800
2022-11-24T01:39:40.049Z,952.6800
2022-11-24T01:39:51.145Z,952.7000
2022-11-24T01:40:02.347Z,952.7000
2022-11-24T01:40:13.554Z,952.7000
2022-11-24T01:40:24.819Z,952.7000
2022-11-24T01:40:35.925Z,952.7200
2022-11-24T01:40:47.149Z,952.7000
2022-11-24T01:40:58.325Z,952.6800
2022-11-24T01:41:09.539Z,952.6800
2022-11-24T01:41:20.725Z,952.6800
2022-11-24T01:41:31.776Z,952.7000
2022-11-24T01:41:42.814Z,952.7000
2022-11-24T01:41:54.019Z,952.6800
2022-11-24T01:42:05.210Z,952.6800
2022-11-24T01:42:16.419Z,952.6800
2022-11-24T01:42:27.508Z,952.6800
2022-11-24T01:42:38.618Z,952.6800
2022-11-24T01:42:49.761Z,952.6800
2022-11-24T01:43:00.898Z,952.6800
2022-11-24T01:43:12.097Z,952.6600
2022-11-24T01:43:23.299Z,952.6600
2022-11-24T01:43:34.552Z,952.6800
2022-11-24T01:43:45.605Z,952.7000
2022-11-24T01:43:56.697Z,952.6800
2022-11-24T01:44:07.768Z,952.6800
2022-11-24T01:44:18.998Z,952.7000
2022-11-24T01:44:30.199Z,952.7200
2022-11-24T01:44:41.287Z,952.7000
2022-11-24T01:44:52.345Z,952.7000
2022-11-24T01:45:03.454Z,952.7200
2022-11-24T01:45:14.658Z,952.7200
2022-11-24T01:45:25.895Z,952.7400
2022-11-24T01:45:37.054Z,952.7200
2022-11-24T01:45:48.280Z,952.7000
2022-11-24T01:45:59.468Z,952.7000
2022-11-24T01:46:10.746Z,952.7200
2022-11-24T01:46:21.914Z,952.7200
2022-11-24T01:46:33.155Z,952.7400
2022-11-24T01:46:44.256Z,952.7600
2022-11-24T01:46:55.297Z,952.7600
2022-11-24T01:47:06.368Z,952.7800
2022-11-24T01:47:17.531Z,952.8000
2022-11-24T01:47:28.633Z,952.7800
2022-11-24T01:47:39.718Z,952.7800
2022-11-24T01:47:50.898Z,952.8200
2022-11-24T01:48:02.059Z,952.8200
2022-11-24T01:48:13.288Z,952.8200
2022-11-24T01:48:27.939Z,952.8000
2022-11-24T01:48:39.489Z,952.8200
2022-11-24T01:48:50.688Z,952.8000
2022-11-24T01:49:01.848Z,952.8000
2022-11-24T01:49:13.050Z,952.8200
2022-11-24T01:49:24.256Z,952.8200
2022-11-24T01:49:35.440Z,952.8200
2022-11-24T01:49:46.702Z,952.8400
2022-11-24T01:49:57.857Z,952.8200
2022-11-24T01:50:09.079Z,952.8200
2022-11-24T01:50:20.149Z,952.8200
2022-11-24T01:50:31.355Z,952.8200
2022-11-24T01:50:42.435Z,952.8400
2022-11-24T01:50:53.559Z,952.8400
2022-11-24T01:51:04.734Z,952.8400
2022-11-24T01:51:15.939Z,952.8200
2022-11-24T01:51:26.970Z,952.8400
2022-11-24T01:51:38.045Z,952.8200
2022-11-24T01:51:49.226Z,952.8400
2022-11-24T01:52:00.275Z,952.8600
2022-11-24T01:52:11.339Z,952.8600
2022-11-24T01:52:22.499Z,952.8400
2022-11-24T01:52:33.550Z,952.8600
2022-11-24T01:52:44.619Z,952.8600
2022-11-24T01:52:55.759Z,952.8800
2022-11-24T01:53:06.986Z,952.8800
2022-11-24T01:53:18.045Z,952.8600
2022-11-24T01:53:29.106Z,952.8400
2022-11-24T01:53:40.259Z,952.8400
2022-11-24T01:53:51.457Z,952.8400
2022-11-24T01:54:02.640Z,952.8400
2022-11-24T01:54:13.857Z,952.8400
2022-11-24T01:54:25.061Z,952.8400
2022-11-24T01:54:36.575Z,952.8400
2022-11-24T01:54:47.802Z,952.8200
2022-11-24T01:54:58.971Z,952.8200
2022-11-24T01:55:10.038Z,952.8200
2022-11-24T01:55:21.099Z,952.8400
2022-11-24T01:55:32.300Z,952.8400
2022-11-24T01:55:43.366Z,952.8200
2022-11-24T01:55:54.439Z,952.8400
2022-11-24T01:56:05.525Z,952.8200
2022-11-24T01:56:16.741Z,952.8400
2022-11-24T01:56:27.928Z,952.8400
2022-11-24T01:56:39.158Z,952.8400
2022-11-24T01:56:50.228Z,952.8400
2022-11-24T01:57:01.279Z,952.8600
2022-11-24T01:57:12.407Z,952.8400
2022-11-24T01:57:23.610Z,952.8200
2022-11-24T01:57:34.805Z,952.8400
2022-11-24T01:57:46.028Z,952.8400
2022-11-24T01:57:57.205Z,952.8400
2022-11-24T01:58:08.418Z,952.8400
2022-11-24T01:58:19.606Z,952.8400
2022-11-24T01:58:30.658Z,952.8200
2022-11-24T01:58:41.722Z,952.8400
2022-11-24T01:58:52.888Z,952.8600
2022-11-24T01:59:03.978Z,952.8400
2022-11-24T01:59:15.058Z,952.8400
2022-11-24T01:59:26.179Z,952.8600
2022-11-24T01:59:37.378Z,952.8800
2022-11-24T01:59:48.565Z,952.8800
2022-11-24T01:59:59.779Z,952.8600
2022-11-24T02:00:10.838Z,952.8800
2022-11-24T02:00:21.914Z,952.8800
2022-11-24T02:00:33.099Z,952.8800
2022-11-24T02:00:44.257Z,952.9000
2022-11-24T02:00:55.439Z,952.9000
2022-11-24T02:01:06.687Z,952.9000
2022-11-24T02:01:17.766Z,952.9000
2022-11-24T02:01:28.855Z,952.9000
2022-11-24T02:01:40.012Z,952.9000
2022-11-24T02:01:51.240Z,952.9000
2022-11-24T02:02:02.407Z,952.9000
2022-11-24T02:02:13.586Z,952.9000
2022-11-24T02:02:24.716Z,952.9200
2022-11-24T02:02:35.783Z,952.9000
2022-11-24T02:02:46.919Z,952.9000
2022-11-24T02:02:58.112Z,952.9000
2022-11-24T02:03:09.206Z,952.9000
2022-11-24T02:03:20.408Z,952.9000
2022-11-24T02:03:31.470Z,952.9000
2022-11-24T02:03:42.558Z,952.9200
2022-11-24T02:03:53.667Z,952.8800
2022-11-24T02:04:04.898Z,952.8800
2022-11-24T02:04:16.088Z,952.8800
2022-11-24T02:04:27.293Z,952.9000
2022-11-24T02:04:38.367Z,952.8800
2022-11-24T02:04:49.469Z,952.8800
2022-11-24T02:05:00.588Z,952.8800
2022-11-24T02:05:11.774Z,952.9000
2022-11-24T02:05:22.975Z,952.8800
2022-11-24T02:05:34.222Z,952.8800
2022-11-24T02:05:45.248Z,952.8800
2022-11-24T02:05:56.315Z,952.8800
2022-11-24T02:06:07.447Z,952.8800
2022-11-24T02:06:18.658Z,952.8800
2022-11-24T02:06:29.838Z,952.9000
2022-11-24T02:06:40.904Z,952.8800
2022-11-24T02:06:51.943Z,952.8600
2022-11-24T02:07:03.128Z,952.8800
2022-11-24T02:07:14.384Z,952.8800
2022-11-24T02:07:25.606Z,952.8800
2022-11-24T02:07:36.738Z,952.8800
2022-11-24T02:07:47.966Z,952.9000
2022-11-24T02:07:59.057Z,952.9000
2022-11-24T02:08:10.148Z,952.9000
2022-11-24T02:08:21.207Z,952.9000
2022-11-24T02:08:32.419Z,952.9000
2022-11-24T02:08:43.618Z,952.8800
2022-11-24T02:08:54.824Z,952.8800
2022-11-24T02:09:05.877Z,952.9000
2022-11-24T02:09:16.954Z,952.8800
2022-11-24T02:09:28.094Z,952.8800
2022-11-24T02:09:39.297Z,952.8800
2022-11-24T02:09:50.478Z,952.9000
2022-11-24T02:10:01.534Z,952.8800
2022-11-24T02:10:12.584Z,952.8800
2022-11-24T02:10:23.768Z,952.9000
2022-11-24T02:10:34.997Z,952.9000
2022-11-24T02:10:46.178Z,952.9000
2022-11-24T02:10:57.357Z,952.9000
2022-11-24T02:11:08.426Z,952.9000
2022-11-24T02:11:19.479Z,952.8800
2022-11-24T02:11:30.651Z,952.9000